sensor_id;sensor_type;location;lat;lon;timestamp;temperature;humidity
27072;DHT22;14613;46.308;25.288;2022-12-20T00:00:44;-1.60;80.70
27072;DHT22;14613;46.308;25.288;2022-12-20T00:03:10;-1.70;80.60
27072;DHT22;14613;46.308;25.288;2022-12-20T00:05:37;-1.60;80.70
27072;DHT22;14613;46.308;25.288;2022-12-20T00:08:03;-1.60;80.70
27072;DHT22;14613;46.308;25.288;2022-12-20T00:10:29;-1.60;80.70
27072;DHT22;14613;46.308;25.288;2022-12-20T00:12:55;-1.60;80.70
27072;DHT22;14613;46.308;25.288;2022-12-20T00:15:20;-1.60;80.70
27072;DHT22;14613;46.308;25.288;2022-12-20T00:17:46;-1.50;80.70
27072;DHT22;14613;46.308;25.288;2022-12-20T00:20:12;-1.50;81.50
27072;DHT22;14613;46.308;25.288;2022-12-20T00:22:37;-1.50;80.60
27072;DHT22;14613;46.308;25.288;2022-12-20T00:25:04;-1.50;80.40
27072;DHT22;14613;46.308;25.288;2022-12-20T00:27:30;-1.50;80.30
27072;DHT22;14613;46.308;25.288;2022-12-20T00:29:55;-1.60;80.20
27072;DHT22;14613;46.308;25.288;2022-12-20T00:32:21;-1.60;80.30
27072;DHT22;14613;46.308;25.288;2022-12-20T00:34:47;-1.70;80.40
27072;DHT22;14613;46.308;25.288;2022-12-20T00:37:12;-1.80;80.60
27072;DHT22;14613;46.308;25.288;2022-12-20T00:39:38;-1.90;80.70
27072;DHT22;14613;46.308;25.288;2022-12-20T00:42:04;-2.00;81.20
27072;DHT22;14613;46.308;25.288;2022-12-20T00:44:30;-2.00;81.30
27072;DHT22;14613;46.308;25.288;2022-12-20T00:46:55;-2.00;81.50
27072;DHT22;14613;46.308;25.288;2022-12-20T00:49:21;-2.00;81.50
27072;DHT22;14613;46.308;25.288;2022-12-20T00:51:47;-2.00;81.60
27072;DHT22;14613;46.308;25.288;2022-12-20T00:54:12;-2.00;81.60
27072;DHT22;14613;46.308;25.288;2022-12-20T00:56:38;-2.00;81.60
27072;DHT22;14613;46.308;25.288;2022-12-20T00:59:04;-1.90;81.50
27072;DHT22;14613;46.308;25.288;2022-12-20T01:01:31;-1.90;81.30
27072;DHT22;14613;46.308;25.288;2022-12-20T01:03:59;-1.90;81.10
27072;DHT22;14613;46.308;25.288;2022-12-20T01:06:26;-1.90;81.00
27072;DHT22;14613;46.308;25.288;2022-12-20T01:08:53;-1.90;80.90
27072;DHT22;14613;46.308;25.288;2022-12-20T01:11:25;-1.80;80.90
27072;DHT22;14613;46.308;25.288;2022-12-20T01:13:52;-1.80;81.50
27072;DHT22;14613;46.308;25.288;2022-12-20T01:16:30;-1.80;80.70
27072;DHT22;14613;46.308;25.288;2022-12-20T01:18:56;-1.90;80.60
27072;DHT22;14613;46.308;25.288;2022-12-20T01:21:24;-1.90;80.60
27072;DHT22;14613;46.308;25.288;2022-12-20T01:23:50;-1.90;80.70
27072;DHT22;14613;46.308;25.288;2022-12-20T01:26:18;-1.90;80.70
27072;DHT22;14613;46.308;25.288;2022-12-20T01:28:46;-1.90;80.60
27072;DHT22;14613;46.308;25.288;2022-12-20T01:31:14;-1.90;80.50
27072;DHT22;14613;46.308;25.288;2022-12-20T01:33:41;-1.90;80.50
27072;DHT22;14613;46.308;25.288;2022-12-20T01:36:11;-2.00;80.50
27072;DHT22;14613;46.308;25.288;2022-12-20T01:38:37;-2.00;80.60
27072;DHT22;14613;46.308;25.288;2022-12-20T01:41:02;-2.00;80.70
27072;DHT22;14613;46.308;25.288;2022-12-20T01:43:48;-2.00;80.70
27072;DHT22;14613;46.308;25.288;2022-12-20T01:46:15;-2.00;80.60
27072;DHT22;14613;46.308;25.288;2022-12-20T01:48:43;-2.10;80.60
27072;DHT22;14613;46.308;25.288;2022-12-20T01:51:09;-2.10;80.70
27072;DHT22;14613;46.308;25.288;2022-12-20T01:53:35;-2.20;80.80
27072;DHT22;14613;46.308;25.288;2022-12-20T01:56:04;-2.20;80.90
27072;DHT22;14613;46.308;25.288;2022-12-20T01:58:31;-2.20;81.00
27072;DHT22;14613;46.308;25.288;2022-12-20T02:00:58;-2.20;81.00
27072;DHT22;14613;46.308;25.288;2022-12-20T02:03:24;-2.20;80.90
27072;DHT22;14613;46.308;25.288;2022-12-20T02:05:50;-2.30;80.90
27072;DHT22;14613;46.308;25.288;2022-12-20T02:08:17;-2.30;81.00
27072;DHT22;14613;46.308;25.288;2022-12-20T02:16:24;-2.40;81.30
27072;DHT22;14613;46.308;25.288;2022-12-20T02:30:16;-2.50;81.20
27072;DHT22;14613;46.308;25.288;2022-12-20T02:33:05;-2.50;81.10
27072;DHT22;14613;46.308;25.288;2022-12-20T02:35:32;-2.50;81.20
27072;DHT22;14613;46.308;25.288;2022-12-20T02:38:00;-2.50;81.20
27072;DHT22;14613;46.308;25.288;2022-12-20T02:40:38;-2.50;81.30
27072;DHT22;14613;46.308;25.288;2022-12-20T02:43:06;-2.50;81.30
27072;DHT22;14613;46.308;25.288;2022-12-20T02:45:54;-2.50;81.40
27072;DHT22;14613;46.308;25.288;2022-12-20T02:48:23;-2.50;81.20
27072;DHT22;14613;46.308;25.288;2022-12-20T02:50:52;-2.60;81.10
27072;DHT22;14613;46.308;25.288;2022-12-20T02:53:21;-2.60;81.20
27072;DHT22;14613;46.308;25.288;2022-12-20T02:56:40;-2.60;81.20
27072;DHT22;14613;46.308;25.288;2022-12-20T02:59:22;-2.60;81.20
27072;DHT22;14613;46.308;25.288;2022-12-20T03:01:54;-2.60;81.30
27072;DHT22;14613;46.308;25.288;2022-12-20T03:04:26;-2.60;81.40
27072;DHT22;14613;46.308;25.288;2022-12-20T03:07:04;-2.60;81.40
27072;DHT22;14613;46.308;25.288;2022-12-20T03:09:31;-2.60;81.40
27072;DHT22;14613;46.308;25.288;2022-12-20T03:11:58;-2.70;81.30
27072;DHT22;14613;46.308;25.288;2022-12-20T03:14:24;-2.60;81.40
27072;DHT22;14613;46.308;25.288;2022-12-20T03:16:51;-2.70;81.40
27072;DHT22;14613;46.308;25.288;2022-12-20T03:19:17;-2.60;81.50
27072;DHT22;14613;46.308;25.288;2022-12-20T03:21:42;-2.70;81.40
27072;DHT22;14613;46.308;25.288;2022-12-20T03:24:08;-2.70;81.50
27072;DHT22;14613;46.308;25.288;2022-12-20T03:26:36;-2.70;81.60
27072;DHT22;14613;46.308;25.288;2022-12-20T03:29:02;-2.70;81.70
27072;DHT22;14613;46.308;25.288;2022-12-20T03:31:28;-2.70;81.60
27072;DHT22;14613;46.308;25.288;2022-12-20T03:33:54;-2.70;81.60
27072;DHT22;14613;46.308;25.288;2022-12-20T03:36:20;-2.70;81.70
27072;DHT22;14613;46.308;25.288;2022-12-20T03:38:49;-2.70;81.60
27072;DHT22;14613;46.308;25.288;2022-12-20T03:41:15;-2.80;81.50
27072;DHT22;14613;46.308;25.288;2022-12-20T03:43:40;-2.70;81.60
27072;DHT22;14613;46.308;25.288;2022-12-20T03:46:06;-2.70;81.60
27072;DHT22;14613;46.308;25.288;2022-12-20T03:48:32;-2.70;81.60
27072;DHT22;14613;46.308;25.288;2022-12-20T03:50:58;-2.70;81.70
27072;DHT22;14613;46.308;25.288;2022-12-20T03:53:24;-2.70;81.70
27072;DHT22;14613;46.308;25.288;2022-12-20T03:55:49;-2.70;81.60
27072;DHT22;14613;46.308;25.288;2022-12-20T03:58:15;-2.70;81.60
27072;DHT22;14613;46.308;25.288;2022-12-20T04:00:41;-2.70;81.50
27072;DHT22;14613;46.308;25.288;2022-12-20T04:03:06;-2.70;81.40
27072;DHT22;14613;46.308;25.288;2022-12-20T04:05:32;-2.70;81.40
27072;DHT22;14613;46.308;25.288;2022-12-20T04:07:58;-2.70;81.30
27072;DHT22;14613;46.308;25.288;2022-12-20T04:10:24;-2.70;81.30
27072;DHT22;14613;46.308;25.288;2022-12-20T04:12:49;-2.70;81.30
27072;DHT22;14613;46.308;25.288;2022-12-20T04:15:15;-2.70;81.30
27072;DHT22;14613;46.308;25.288;2022-12-20T04:17:41;-2.70;81.40
27072;DHT22;14613;46.308;25.288;2022-12-20T04:20:09;-2.70;81.40
27072;DHT22;14613;46.308;25.288;2022-12-20T04:22:50;-2.70;81.50
27072;DHT22;14613;46.308;25.288;2022-12-20T04:25:19;-2.70;81.40
27072;DHT22;14613;46.308;25.288;2022-12-20T04:27:45;-2.70;81.40
27072;DHT22;14613;46.308;25.288;2022-12-20T04:30:11;-2.70;81.20
27072;DHT22;14613;46.308;25.288;2022-12-20T04:32:37;-2.70;81.20
27072;DHT22;14613;46.308;25.288;2022-12-20T04:35:04;-2.80;81.20
27072;DHT22;14613;46.308;25.288;2022-12-20T04:37:30;-2.70;81.20
27072;DHT22;14613;46.308;25.288;2022-12-20T04:39:56;-2.80;81.20
27072;DHT22;14613;46.308;25.288;2022-12-20T04:42:23;-2.80;81.20
27072;DHT22;14613;46.308;25.288;2022-12-20T04:44:49;-2.80;81.20
27072;DHT22;14613;46.308;25.288;2022-12-20T04:47:15;-2.80;81.20
27072;DHT22;14613;46.308;25.288;2022-12-20T04:49:40;-2.80;81.40
27072;DHT22;14613;46.308;25.288;2022-12-20T04:52:06;-2.90;81.40
27072;DHT22;14613;46.308;25.288;2022-12-20T04:54:50;-2.90;81.50
27072;DHT22;14613;46.308;25.288;2022-12-20T04:57:16;-2.90;81.50
27072;DHT22;14613;46.308;25.288;2022-12-20T04:59:42;-2.90;81.70
27072;DHT22;14613;46.308;25.288;2022-12-20T05:02:07;-2.90;81.70
27072;DHT22;14613;46.308;25.288;2022-12-20T05:04:33;-2.90;81.70
27072;DHT22;14613;46.308;25.288;2022-12-20T05:06:59;-2.90;81.70
27072;DHT22;14613;46.308;25.288;2022-12-20T05:09:24;-2.90;81.70
27072;DHT22;14613;46.308;25.288;2022-12-20T05:11:50;-2.90;81.70
27072;DHT22;14613;46.308;25.288;2022-12-20T05:14:16;-2.90;81.60
27072;DHT22;14613;46.308;25.288;2022-12-20T05:16:41;-2.90;81.50
27072;DHT22;14613;46.308;25.288;2022-12-20T05:19:07;-2.90;81.50
27072;DHT22;14613;46.308;25.288;2022-12-20T05:21:33;-2.90;81.50
27072;DHT22;14613;46.308;25.288;2022-12-20T05:24:17;-2.90;81.50
27072;DHT22;14613;46.308;25.288;2022-12-20T05:27:02;-2.90;81.50
27072;DHT22;14613;46.308;25.288;2022-12-20T05:29:28;-3.00;81.40
27072;DHT22;14613;46.308;25.288;2022-12-20T05:31:53;-3.00;81.40
27072;DHT22;14613;46.308;25.288;2022-12-20T05:34:19;-3.00;82.30
27072;DHT22;14613;46.308;25.288;2022-12-20T05:36:45;-3.00;81.60
27072;DHT22;14613;46.308;25.288;2022-12-20T05:39:11;-3.10;81.70
27072;DHT22;14613;46.308;25.288;2022-12-20T05:41:37;-3.00;81.80
27072;DHT22;14613;46.308;25.288;2022-12-20T05:44:03;-3.00;81.90
27072;DHT22;14613;46.308;25.288;2022-12-20T05:46:29;-3.10;81.90
27072;DHT22;14613;46.308;25.288;2022-12-20T05:48:55;-3.10;82.00
27072;DHT22;14613;46.308;25.288;2022-12-20T05:51:21;-3.10;82.00
27072;DHT22;14613;46.308;25.288;2022-12-20T05:53:46;-3.10;82.00
27072;DHT22;14613;46.308;25.288;2022-12-20T05:56:12;-3.10;82.10
27072;DHT22;14613;46.308;25.288;2022-12-20T05:58:38;-3.10;82.20
27072;DHT22;14613;46.308;25.288;2022-12-20T06:01:05;-3.10;82.10
27072;DHT22;14613;46.308;25.288;2022-12-20T06:03:31;-3.00;82.20
27072;DHT22;14613;46.308;25.288;2022-12-20T06:05:57;-3.10;82.00
27072;DHT22;14613;46.308;25.288;2022-12-20T06:08:23;-3.00;82.00
27072;DHT22;14613;46.308;25.288;2022-12-20T06:10:49;-3.00;81.90
27072;DHT22;14613;46.308;25.288;2022-12-20T06:13:17;-3.00;81.90
27072;DHT22;14613;46.308;25.288;2022-12-20T06:15:43;-3.00;81.80
27072;DHT22;14613;46.308;25.288;2022-12-20T06:18:08;-3.00;82.00
27072;DHT22;14613;46.308;25.288;2022-12-20T06:20:36;-3.00;82.00
27072;DHT22;14613;46.308;25.288;2022-12-20T06:23:02;-3.00;82.00
27072;DHT22;14613;46.308;25.288;2022-12-20T06:25:28;-2.90;82.10
27072;DHT22;14613;46.308;25.288;2022-12-20T06:27:54;-2.90;82.20
27072;DHT22;14613;46.308;25.288;2022-12-20T06:30:20;-2.90;82.30
27072;DHT22;14613;46.308;25.288;2022-12-20T06:32:46;-2.80;82.50
27072;DHT22;14613;46.308;25.288;2022-12-20T06:35:12;-2.80;82.50
27072;DHT22;14613;46.308;25.288;2022-12-20T06:37:39;-2.70;82.70
27072;DHT22;14613;46.308;25.288;2022-12-20T06:40:07;-2.60;82.90
27072;DHT22;14613;46.308;25.288;2022-12-20T06:42:33;-2.40;83.30
27072;DHT22;14613;46.308;25.288;2022-12-20T06:44:59;-2.20;83.40
27072;DHT22;14613;46.308;25.288;2022-12-20T06:47:25;-2.10;83.50
27072;DHT22;14613;46.308;25.288;2022-12-20T06:49:50;-1.80;84.00
27072;DHT22;14613;46.308;25.288;2022-12-20T06:52:16;-1.60;83.60
27072;DHT22;14613;46.308;25.288;2022-12-20T06:54:42;-1.30;83.60
27072;DHT22;14613;46.308;25.288;2022-12-20T06:57:07;-1.10;83.60
27072;DHT22;14613;46.308;25.288;2022-12-20T06:59:33;-0.90;83.40
27072;DHT22;14613;46.308;25.288;2022-12-20T07:01:59;-0.70;83.30
27072;DHT22;14613;46.308;25.288;2022-12-20T07:04:25;-0.50;83.10
27072;DHT22;14613;46.308;25.288;2022-12-20T07:06:51;-0.40;82.80
27072;DHT22;14613;46.308;25.288;2022-12-20T07:09:17;-0.30;82.60
27072;DHT22;14613;46.308;25.288;2022-12-20T07:11:43;-0.20;82.50
27072;DHT22;14613;46.308;25.288;2022-12-20T07:14:09;-0.20;82.10
27072;DHT22;14613;46.308;25.288;2022-12-20T07:16:35;-0.10;82.10
27072;DHT22;14613;46.308;25.288;2022-12-20T07:19:00;-0.10;82.10
27072;DHT22;14613;46.308;25.288;2022-12-20T07:21:26;0.00;82.10
27072;DHT22;14613;46.308;25.288;2022-12-20T07:23:53;0.00;82.00
27072;DHT22;14613;46.308;25.288;2022-12-20T07:26:19;0.10;81.80
27072;DHT22;14613;46.308;25.288;2022-12-20T07:28:45;0.10;81.70
27072;DHT22;14613;46.308;25.288;2022-12-20T07:31:10;0.10;81.70
27072;DHT22;14613;46.308;25.288;2022-12-20T07:33:36;0.10;81.80
27072;DHT22;14613;46.308;25.288;2022-12-20T07:36:08;0.20;82.00
27072;DHT22;14613;46.308;25.288;2022-12-20T07:38:34;0.30;82.00
27072;DHT22;14613;46.308;25.288;2022-12-20T07:41:07;0.40;81.90
27072;DHT22;14613;46.308;25.288;2022-12-20T07:43:33;0.50;82.00
27072;DHT22;14613;46.308;25.288;2022-12-20T07:45:59;0.50;82.00
27072;DHT22;14613;46.308;25.288;2022-12-20T07:48:24;0.50;82.00
27072;DHT22;14613;46.308;25.288;2022-12-20T07:50:52;0.70;82.00
27072;DHT22;14613;46.308;25.288;2022-12-20T07:53:21;0.80;81.90
27072;DHT22;14613;46.308;25.288;2022-12-20T07:55:48;0.90;81.70
27072;DHT22;14613;46.308;25.288;2022-12-20T07:58:14;1.00;81.50
27072;DHT22;14613;46.308;25.288;2022-12-20T08:00:42;1.20;81.50
27072;DHT22;14613;46.308;25.288;2022-12-20T08:03:13;1.30;81.40
27072;DHT22;14613;46.308;25.288;2022-12-20T08:05:44;1.50;81.30
27072;DHT22;14613;46.308;25.288;2022-12-20T08:08:12;1.60;81.00
27072;DHT22;14613;46.308;25.288;2022-12-20T08:10:38;1.70;80.90
27072;DHT22;14613;46.308;25.288;2022-12-20T08:13:05;1.90;80.80
27072;DHT22;14613;46.308;25.288;2022-12-20T08:15:33;2.00;80.70
27072;DHT22;14613;46.308;25.288;2022-12-20T08:17:59;2.10;80.70
27072;DHT22;14613;46.308;25.288;2022-12-20T08:20:24;2.30;80.60
27072;DHT22;14613;46.308;25.288;2022-12-20T08:22:50;2.40;80.40
27072;DHT22;14613;46.308;25.288;2022-12-20T08:25:16;2.50;80.30
27072;DHT22;14613;46.308;25.288;2022-12-20T08:27:42;2.60;80.20
27072;DHT22;14613;46.308;25.288;2022-12-20T08:30:08;2.80;80.10
27072;DHT22;14613;46.308;25.288;2022-12-20T08:32:35;2.80;80.00
27072;DHT22;14613;46.308;25.288;2022-12-20T08:35:01;3.00;80.00
27072;DHT22;14613;46.308;25.288;2022-12-20T08:37:27;3.10;79.90
27072;DHT22;14613;46.308;25.288;2022-12-20T08:39:53;3.20;79.90
27072;DHT22;14613;46.308;25.288;2022-12-20T08:42:18;3.30;79.70
27072;DHT22;14613;46.308;25.288;2022-12-20T08:44:44;3.40;79.70
27072;DHT22;14613;46.308;25.288;2022-12-20T08:47:10;3.50;79.60
27072;DHT22;14613;46.308;25.288;2022-12-20T08:49:36;3.60;79.60
27072;DHT22;14613;46.308;25.288;2022-12-20T08:52:01;3.60;79.30
27072;DHT22;14613;46.308;25.288;2022-12-20T08:54:27;3.70;79.10
27072;DHT22;14613;46.308;25.288;2022-12-20T08:56:53;3.80;79.10
27072;DHT22;14613;46.308;25.288;2022-12-20T08:59:18;3.80;79.00
27072;DHT22;14613;46.308;25.288;2022-12-20T09:01:44;3.90;79.00
27072;DHT22;14613;46.308;25.288;2022-12-20T09:04:10;4.00;79.10
27072;DHT22;14613;46.308;25.288;2022-12-20T09:06:37;4.10;79.10
27072;DHT22;14613;46.308;25.288;2022-12-20T09:09:03;4.20;78.90
27072;DHT22;14613;46.308;25.288;2022-12-20T09:11:29;4.30;78.80
27072;DHT22;14613;46.308;25.288;2022-12-20T09:13:57;4.40;78.60
27072;DHT22;14613;46.308;25.288;2022-12-20T09:16:26;4.50;78.40
27072;DHT22;14613;46.308;25.288;2022-12-20T09:18:54;4.60;78.10
27072;DHT22;14613;46.308;25.288;2022-12-20T09:21:20;4.60;78.20
27072;DHT22;14613;46.308;25.288;2022-12-20T09:23:48;4.70;78.30
27072;DHT22;14613;46.308;25.288;2022-12-20T09:26:15;4.80;78.20
27072;DHT22;14613;46.308;25.288;2022-12-20T09:28:42;5.00;78.00
27072;DHT22;14613;46.308;25.288;2022-12-20T09:31:12;5.10;77.80
27072;DHT22;14613;46.308;25.288;2022-12-20T09:33:38;5.20;77.70
27072;DHT22;14613;46.308;25.288;2022-12-20T09:36:04;5.30;77.70
27072;DHT22;14613;46.308;25.288;2022-12-20T09:38:30;5.40;77.60
27072;DHT22;14613;46.308;25.288;2022-12-20T09:41:07;5.50;77.50
27072;DHT22;14613;46.308;25.288;2022-12-20T09:43:39;5.60;77.40
27072;DHT22;14613;46.308;25.288;2022-12-20T09:46:06;5.70;77.10
27072;DHT22;14613;46.308;25.288;2022-12-20T09:48:39;5.80;77.00
27072;DHT22;14613;46.308;25.288;2022-12-20T09:54:27;5.90;76.60
27072;DHT22;14613;46.308;25.288;2022-12-20T09:57:22;5.90;76.50
27072;DHT22;14613;46.308;25.288;2022-12-20T09:59:55;6.00;76.50
27072;DHT22;14613;46.308;25.288;2022-12-20T10:02:23;6.10;76.30
27072;DHT22;14613;46.308;25.288;2022-12-20T10:04:50;6.10;76.20
27072;DHT22;14613;46.308;25.288;2022-12-20T10:07:38;6.20;76.20
27072;DHT22;14613;46.308;25.288;2022-12-20T10:15:52;6.30;76.00
27072;DHT22;14613;46.308;25.288;2022-12-20T10:23:46;6.40;76.30
27072;DHT22;14613;46.308;25.288;2022-12-20T10:26:13;6.40;76.30
27072;DHT22;14613;46.308;25.288;2022-12-20T10:28:39;6.50;76.40
27072;DHT22;14613;46.308;25.288;2022-12-20T10:31:16;6.50;76.60
27072;DHT22;14613;46.308;25.288;2022-12-20T10:33:43;6.60;76.30
27072;DHT22;14613;46.308;25.288;2022-12-20T10:38:56;6.60;76.40
27072;DHT22;14613;46.308;25.288;2022-12-20T10:41:25;6.60;76.40
27072;DHT22;14613;46.308;25.288;2022-12-20T10:44:05;6.60;76.40
27072;DHT22;14613;46.308;25.288;2022-12-20T10:46:42;6.70;76.40
27072;DHT22;14613;46.308;25.288;2022-12-20T10:49:34;6.70;76.40
27072;DHT22;14613;46.308;25.288;2022-12-20T10:54:35;6.70;76.40
27072;DHT22;14613;46.308;25.288;2022-12-20T10:57:23;6.70;76.40
27072;DHT22;14613;46.308;25.288;2022-12-20T10:59:55;6.70;76.50
27072;DHT22;14613;46.308;25.288;2022-12-20T11:02:31;6.80;76.60
27072;DHT22;14613;46.308;25.288;2022-12-20T11:07:36;6.90;76.50
27072;DHT22;14613;46.308;25.288;2022-12-20T11:10:21;6.90;76.50
27072;DHT22;14613;46.308;25.288;2022-12-20T11:13:01;7.00;76.50
27072;DHT22;14613;46.308;25.288;2022-12-20T11:15:30;7.10;76.50
27072;DHT22;14613;46.308;25.288;2022-12-20T11:21:11;7.20;75.50
27072;DHT22;14613;46.308;25.288;2022-12-20T11:26:28;7.20;76.10
27072;DHT22;14613;46.308;25.288;2022-12-20T11:34:30;7.30;75.70
27072;DHT22;14613;46.308;25.288;2022-12-20T11:53:31;7.10;75.80
27072;DHT22;14613;46.308;25.288;2022-12-20T11:56:04;7.00;75.90
27072;DHT22;14613;46.308;25.288;2022-12-20T11:59:29;7.00;75.90
27072;DHT22;14613;46.308;25.288;2022-12-20T12:01:42;6.90;76.10
27072;DHT22;14613;46.308;25.288;2022-12-20T12:04:17;6.90;76.20
27072;DHT22;14613;46.308;25.288;2022-12-20T12:06:51;6.90;76.30
27072;DHT22;14613;46.308;25.288;2022-12-20T12:14:55;6.90;76.00
27072;DHT22;14613;46.308;25.288;2022-12-20T12:19:55;7.00;76.80
27072;DHT22;14613;46.308;25.288;2022-12-20T12:22:27;7.10;76.00
27072;DHT22;14613;46.308;25.288;2022-12-20T12:24:57;7.10;75.80
27072;DHT22;14613;46.308;25.288;2022-12-20T12:27:26;7.20;75.60
27072;DHT22;14613;46.308;25.288;2022-12-20T12:29:53;7.20;75.50
27072;DHT22;14613;46.308;25.288;2022-12-20T12:32:43;7.30;75.40
27072;DHT22;14613;46.308;25.288;2022-12-20T12:45:47;7.50;74.90
27072;DHT22;14613;46.308;25.288;2022-12-20T12:49:00;7.50;74.70
27072;DHT22;14613;46.308;25.288;2022-12-20T12:51:29;7.60;74.70
27072;DHT22;14613;46.308;25.288;2022-12-20T12:54:23;7.70;74.60
27072;DHT22;14613;46.308;25.288;2022-12-20T12:56:51;7.70;74.40
27072;DHT22;14613;46.308;25.288;2022-12-20T12:59:22;7.80;74.30
27072;DHT22;14613;46.308;25.288;2022-12-20T13:04:27;7.90;74.00
27072;DHT22;14613;46.308;25.288;2022-12-20T13:09:55;8.00;73.80
27072;DHT22;14613;46.308;25.288;2022-12-20T13:17:54;8.00;73.70
27072;DHT22;14613;46.308;25.288;2022-12-20T13:20:32;8.10;73.70
27072;DHT22;14613;46.308;25.288;2022-12-20T13:23:17;8.10;73.50
27072;DHT22;14613;46.308;25.288;2022-12-20T13:25:45;8.10;73.50
27072;DHT22;14613;46.308;25.288;2022-12-20T13:39:03;8.00;73.10
27072;DHT22;14613;46.308;25.288;2022-12-20T13:41:52;8.00;73.10
27072;DHT22;14613;46.308;25.288;2022-12-20T13:44:35;8.00;73.00
27072;DHT22;14613;46.308;25.288;2022-12-20T13:47:25;8.00;73.00
27072;DHT22;14613;46.308;25.288;2022-12-20T13:49:52;7.90;72.90
27072;DHT22;14613;46.308;25.288;2022-12-20T13:52:23;7.90;72.90
27072;DHT22;14613;46.308;25.288;2022-12-20T13:54:54;7.80;72.70
27072;DHT22;14613;46.308;25.288;2022-12-20T13:57:31;7.70;72.60
27072;DHT22;14613;46.308;25.288;2022-12-20T14:00:00;7.60;72.60
27072;DHT22;14613;46.308;25.288;2022-12-20T14:02:33;7.50;72.60
27072;DHT22;14613;46.308;25.288;2022-12-20T14:05:16;7.40;72.60
27072;DHT22;14613;46.308;25.288;2022-12-20T14:07:54;7.40;72.70
27072;DHT22;14613;46.308;25.288;2022-12-20T14:10:26;7.30;72.80
27072;DHT22;14613;46.308;25.288;2022-12-20T14:12:54;7.20;72.80
27072;DHT22;14613;46.308;25.288;2022-12-20T14:15:31;7.10;72.80
27072;DHT22;14613;46.308;25.288;2022-12-20T14:18:05;7.00;72.80
27072;DHT22;14613;46.308;25.288;2022-12-20T14:20:34;7.00;72.80
27072;DHT22;14613;46.308;25.288;2022-12-20T14:23:13;6.90;72.80
27072;DHT22;14613;46.308;25.288;2022-12-20T14:25:47;6.80;72.90
27072;DHT22;14613;46.308;25.288;2022-12-20T14:28:28;6.80;73.00
27072;DHT22;14613;46.308;25.288;2022-12-20T14:30:57;6.70;73.00
27072;DHT22;14613;46.308;25.288;2022-12-20T14:33:36;6.70;73.10
27072;DHT22;14613;46.308;25.288;2022-12-20T14:38:50;6.60;73.10
27072;DHT22;14613;46.308;25.288;2022-12-20T14:41:39;6.50;73.10
27072;DHT22;14613;46.308;25.288;2022-12-20T14:46:32;6.40;73.10
27072;DHT22;14613;46.308;25.288;2022-12-20T14:49:31;6.40;74.00
27072;DHT22;14613;46.308;25.288;2022-12-20T14:58:24;6.20;73.30
27072;DHT22;14613;46.308;25.288;2022-12-20T15:13:43;5.90;73.60
27072;DHT22;14613;46.308;25.288;2022-12-20T15:16:22;5.80;73.40
27072;DHT22;14613;46.308;25.288;2022-12-20T15:18:50;5.80;73.40
27072;DHT22;14613;46.308;25.288;2022-12-20T15:23:49;5.70;73.40
27072;DHT22;14613;46.308;25.288;2022-12-20T15:26:23;5.60;73.50
27072;DHT22;14613;46.308;25.288;2022-12-20T15:28:50;5.60;73.60
27072;DHT22;14613;46.308;25.288;2022-12-20T15:31:19;5.50;73.60
27072;DHT22;14613;46.308;25.288;2022-12-20T15:33:46;5.50;73.60
27072;DHT22;14613;46.308;25.288;2022-12-20T15:36:18;5.40;73.60
27072;DHT22;14613;46.308;25.288;2022-12-20T15:38:45;5.40;73.70
27072;DHT22;14613;46.308;25.288;2022-12-20T15:41:26;5.30;73.70
27072;DHT22;14613;46.308;25.288;2022-12-20T15:44:04;5.20;73.70
27072;DHT22;14613;46.308;25.288;2022-12-20T15:46:30;5.20;73.90
27072;DHT22;14613;46.308;25.288;2022-12-20T15:48:57;5.10;73.90
27072;DHT22;14613;46.308;25.288;2022-12-20T15:51:26;5.10;73.90
27072;DHT22;14613;46.308;25.288;2022-12-20T15:53:52;5.00;73.90
27072;DHT22;14613;46.308;25.288;2022-12-20T15:56:21;5.00;74.00
27072;DHT22;14613;46.308;25.288;2022-12-20T15:58:48;4.90;74.00
27072;DHT22;14613;46.308;25.288;2022-12-20T16:01:43;4.90;74.00
27072;DHT22;14613;46.308;25.288;2022-12-20T16:04:18;4.90;74.10
27072;DHT22;14613;46.308;25.288;2022-12-20T16:06:46;4.80;74.00
27072;DHT22;14613;46.308;25.288;2022-12-20T16:09:13;4.70;74.00
27072;DHT22;14613;46.308;25.288;2022-12-20T16:11:39;4.70;74.10
27072;DHT22;14613;46.308;25.288;2022-12-20T16:14:05;4.60;74.10
27072;DHT22;14613;46.308;25.288;2022-12-20T16:16:33;4.60;74.20
27072;DHT22;14613;46.308;25.288;2022-12-20T16:19:00;4.50;74.30
27072;DHT22;14613;46.308;25.288;2022-12-20T16:21:45;4.50;74.40
27072;DHT22;14613;46.308;25.288;2022-12-20T16:24:13;4.40;74.30
27072;DHT22;14613;46.308;25.288;2022-12-20T16:26:39;4.40;74.40
27072;DHT22;14613;46.308;25.288;2022-12-20T16:29:05;4.30;74.40
27072;DHT22;14613;46.308;25.288;2022-12-20T16:31:37;4.30;74.40
27072;DHT22;14613;46.308;25.288;2022-12-20T16:34:05;4.30;74.50
27072;DHT22;14613;46.308;25.288;2022-12-20T16:36:32;4.20;75.30
27072;DHT22;14613;46.308;25.288;2022-12-20T16:38:58;4.20;74.60
27072;DHT22;14613;46.308;25.288;2022-12-20T16:41:26;4.20;74.70
27072;DHT22;14613;46.308;25.288;2022-12-20T16:43:54;4.10;74.70
27072;DHT22;14613;46.308;25.288;2022-12-20T16:46:22;4.00;74.70
27072;DHT22;14613;46.308;25.288;2022-12-20T16:48:50;4.00;74.70
27072;DHT22;14613;46.308;25.288;2022-12-20T16:51:34;3.90;74.70
27072;DHT22;14613;46.308;25.288;2022-12-20T16:54:05;3.90;74.80
27072;DHT22;14613;46.308;25.288;2022-12-20T16:56:32;3.80;74.90
27072;DHT22;14613;46.308;25.288;2022-12-20T16:58:58;3.80;75.00
27072;DHT22;14613;46.308;25.288;2022-12-20T17:01:35;3.70;75.20
27072;DHT22;14613;46.308;25.288;2022-12-20T17:04:02;3.70;75.20
27072;DHT22;14613;46.308;25.288;2022-12-20T17:06:28;3.60;76.00
27072;DHT22;14613;46.308;25.288;2022-12-20T17:08:54;3.60;75.20
27072;DHT22;14613;46.308;25.288;2022-12-20T17:11:26;3.50;75.30
27072;DHT22;14613;46.308;25.288;2022-12-20T17:13:55;3.50;75.50
27072;DHT22;14613;46.308;25.288;2022-12-20T17:16:21;3.40;75.50
27072;DHT22;14613;46.308;25.288;2022-12-20T17:18:50;3.40;75.50
27072;DHT22;14613;46.308;25.288;2022-12-20T17:21:23;3.40;75.60
27072;DHT22;14613;46.308;25.288;2022-12-20T17:23:53;3.30;75.50
27072;DHT22;14613;46.308;25.288;2022-12-20T17:26:22;3.30;75.60
27072;DHT22;14613;46.308;25.288;2022-12-20T17:28:53;3.30;75.60
27072;DHT22;14613;46.308;25.288;2022-12-20T17:31:32;3.20;75.50
27072;DHT22;14613;46.308;25.288;2022-12-20T17:34:12;3.20;75.50
27072;DHT22;14613;46.308;25.288;2022-12-20T17:36:39;3.10;75.50
27072;DHT22;14613;46.308;25.288;2022-12-20T17:39:05;3.10;75.60
27072;DHT22;14613;46.308;25.288;2022-12-20T17:41:32;3.00;75.60
27072;DHT22;14613;46.308;25.288;2022-12-20T17:43:59;3.00;75.70
27072;DHT22;14613;46.308;25.288;2022-12-20T17:46:26;2.90;75.70
27072;DHT22;14613;46.308;25.288;2022-12-20T17:48:52;2.90;75.90
27072;DHT22;14613;46.308;25.288;2022-12-20T17:51:24;2.90;76.00
27072;DHT22;14613;46.308;25.288;2022-12-20T17:53:53;2.80;76.10